Terminal Aerodrome Forecast
Issued by NWS

Home | Current Version | Previous Version | Text Only | Print | Product List | Glossary On
Versions: 1 2 3 4 5 6 7 8 9 10 11 12 13 14 15 16 17 18 19 20 21 22 23 24 25 26 27 28 29 30
378
FTUS43 KLOT 251511 AAC
TAFORD
TAF AMD
KORD 251511Z 2515/2618 33007KT P6SM OVC015
     FM251700 33007KT P6SM BKN025
     FM252000 02008KT P6SM SCT035 BKN100
     FM260100 29005KT P6SM SCT120
     FM260800 33005KT P6SM BKN100
     FM261500 03006KT P6SM BKN100=

USA.gov is the U.S. government's official web portal to all federal, state and local government web resources and services.